Time,TemperatureF,DewpointF,PressureIn,WindDirection,WindDirectionDegrees,WindSpeedMPH,WindSpeedGustMPH,Humidity,HourlyPrecipIn,Conditions,Clouds,dailyrainin,SoftwareType,DateUTC
2013-02-13 00:02:00,43.7,39.5,30.25,SSW,209,0.0,0.0,85,0.00,,,0.00,Wunderground v.1.15,2013-02-13 08:02:00,
2013-02-13 00:12:00,43.3,39.4,30.25,SSW,209,0.0,0.0,86,0.00,,,0.00,Wunderground v.1.15,2013-02-13 08:12:00,
2013-02-13 00:22:00,43.1,39.2,30.25,SSW,209,0.0,0.0,86,0.00,,,0.00,Wunderground v.1.15,2013-02-13 08:22:00,
2013-02-13 00:32:00,42.8,39.2,30.25,SSW,209,0.0,0.0,87,0.00,,,0.00,Wunderground v.1.15,2013-02-13 08:32:00,
2013-02-13 00:42:00,43.1,39.8,30.24,SSW,209,0.0,0.0,88,0.00,,,0.00,Wunderground v.1.15,2013-02-13 08:42:00,
2013-02-13 00:52:00,43.1,39.5,30.24,SSW,209,0.0,1.0,87,0.00,,,0.00,Wunderground v.1.15,2013-02-13 08:52:00,
2013-02-13 01:02:00,42.6,39.3,30.24,SSW,209,0.0,0.0,88,0.00,,,0.00,Wunderground v.1.15,2013-02-13 09:02:00,
2013-02-13 01:12:00,42.7,39.4,30.24,SSW,209,0.0,1.0,88,0.00,,,0.00,Wunderground v.1.15,2013-02-13 09:12:00,
2013-02-13 01:22:00,42.6,39.6,30.23,NE,54,2.0,3.0,89,0.00,,,0.00,Wunderground v.1.15,2013-02-13 09:22:00,
2013-02-13 01:32:00,42.5,39.2,30.23,ENE,57,1.0,2.0,88,0.00,,,0.00,Wunderground v.1.15,2013-02-13 09:32:00,
2013-02-13 01:42:00,42.3,39.0,30.23,ENE,57,0.0,0.0,88,0.00,,,0.00,Wunderground v.1.15,2013-02-13 09:42:00,
2013-02-13 01:52:00,42.1,38.8,30.23,ENE,57,0.0,0.0,88,0.00,,,0.00,Wunderground v.1.15,2013-02-13 09:52:00,
2013-02-13 02:02:00,41.9,38.9,30.23,ENE,57,0.0,1.0,89,0.00,,,0.00,Wunderground v.1.15,2013-02-13 10:02:00,
2013-02-13 02:12:00,41.6,38.6,30.23,ENE,57,0.0,0.0,89,0.00,,,0.00,Wunderground v.1.15,2013-02-13 10:12:00,
2013-02-13 02:22:00,41.6,38.9,30.23,ENE,57,0.0,0.0,90,0.00,,,0.00,Wunderground v.1.15,2013-02-13 10:22:00,
2013-02-13 02:32:00,43.0,40.8,30.23,ENE,57,0.0,0.0,92,0.00,,,0.00,Wunderground v.1.15,2013-02-13 10:32:00,
2013-02-13 02:42:00,42.0,38.7,30.23,ENE,57,0.0,1.0,88,0.00,,,0.00,Wunderground v.1.15,2013-02-13 10:42:00,
2013-02-13 02:52:00,41.4,38.4,30.22,ENE,57,0.0,0.0,89,0.00,,,0.00,Wunderground v.1.15,2013-02-13 10:52:00,
2013-02-13 03:02:00,40.8,37.8,30.22,ENE,57,0.0,0.0,89,0.00,,,0.00,Wunderground v.1.15,2013-02-13 11:02:00,
2013-02-13 03:12:00,40.4,37.4,30.22,ENE,57,0.0,0.0,89,0.00,,,0.00,Wunderground v.1.15,2013-02-13 11:12:00,
2013-02-13 03:22:00,40.2,37.5,30.22,ENE,57,0.0,0.0,90,0.00,,,0.00,Wunderground v.1.15,2013-02-13 11:22:00,
2013-02-13 03:32:00,39.8,37.1,30.22,ENE,57,0.0,0.0,90,0.00,,,0.00,Wunderground v.1.15,2013-02-13 11:32:00,
2013-02-13 03:42:00,39.8,37.7,30.22,ENE,57,0.0,0.0,92,0.00,,,0.00,Wunderground v.1.15,2013-02-13 11:42:00,
2013-02-13 03:52:00,40.3,38.4,30.21,ENE,57,0.0,0.0,93,0.00,,,0.00,Wunderground v.1.15,2013-02-13 11:52:00,
2013-02-13 04:02:00,41.2,39.3,30.21,ENE,57,0.0,0.0,93,0.00,,,0.00,Wunderground v.1.15,2013-02-13 12:02:00,
2013-02-13 04:12:00,40.6,37.9,30.21,ENE,57,0.0,0.0,90,0.00,,,0.00,Wunderground v.1.15,2013-02-13 12:12:00,
2013-02-13 04:22:00,39.8,37.1,30.21,ENE,57,0.0,0.0,90,0.00,,,0.00,Wunderground v.1.15,2013-02-13 12:22:00,
2013-02-13 04:32:00,39.5,36.8,30.22,ENE,57,0.0,0.0,90,0.00,,,0.00,Wunderground v.1.15,2013-02-13 12:32:00,
2013-02-13 04:42:00,39.2,36.8,30.21,ENE,57,0.0,0.0,91,0.00,,,0.00,Wunderground v.1.15,2013-02-13 12:42:00,
2013-02-13 04:52:00,39.0,36.6,30.22,ENE,57,0.0,0.0,91,0.00,,,0.00,Wunderground v.1.15,2013-02-13 12:52:00,
2013-02-13 05:02:00,39.6,38.0,30.21,ENE,57,0.0,1.0,94,0.00,,,0.00,Wunderground v.1.15,2013-02-13 13:02:00,
2013-02-13 05:12:00,39.6,37.5,30.22,ENE,57,0.0,0.0,92,0.00,,,0.00,Wunderground v.1.15,2013-02-13 13:12:00,
2013-02-13 05:22:00,39.0,36.6,30.22,ENE,57,0.0,0.0,91,0.00,,,0.00,Wunderground v.1.15,2013-02-13 13:22:00,
2013-02-13 05:32:00,38.7,36.3,30.22,ENE,57,0.0,0.0,91,0.00,,,0.00,Wunderground v.1.15,2013-02-13 13:32:00,
2013-02-13 05:42:00,38.3,35.9,30.22,ENE,57,0.0,0.0,91,0.00,,,0.00,Wunderground v.1.15,2013-02-13 13:42:00,
2013-02-13 05:52:00,38.3,36.2,30.22,ENE,57,0.0,0.0,92,0.00,,,0.00,Wunderground v.1.15,2013-02-13 13:52:00,
2013-02-13 06:02:00,38.2,36.1,30.22,ENE,57,0.0,0.0,92,0.00,,,0.00,Wunderground v.1.15,2013-02-13 14:02:00,
2013-02-13 06:12:00,38.3,36.2,30.23,ENE,57,1.0,1.0,92,0.00,,,0.00,Wunderground v.1.15,2013-02-13 14:12:00,
2013-02-13 06:22:00,38.3,36.2,30.23,ENE,57,0.0,0.0,92,0.00,,,0.00,Wunderground v.1.15,2013-02-13 14:22:00,
2013-02-13 06:32:00,38.7,36.6,30.23,ENE,57,0.0,1.0,92,0.00,,,0.00,Wunderground v.1.15,2013-02-13 14:32:00,
2013-02-13 06:42:00,38.6,36.5,30.23,ENE,57,0.0,1.0,92,0.00,,,0.00,Wunderground v.1.15,2013-02-13 14:42:00,
2013-02-13 06:52:00,38.5,36.1,30.24,ENE,57,0.0,0.0,91,0.00,,,0.00,Wunderground v.1.15,2013-02-13 14:52:00,
2013-02-13 07:02:00,38.5,36.4,30.24,ENE,57,0.0,0.0,92,0.00,,,0.00,Wunderground v.1.15,2013-02-13 15:02:00,
2013-02-13 07:12:00,38.9,37.0,30.24,ENE,57,0.0,0.0,93,0.00,,,0.00,Wunderground v.1.15,2013-02-13 15:12:00,
2013-02-13 07:22:00,40.2,38.1,30.24,ENE,57,0.0,0.0,92,0.00,,,0.00,Wunderground v.1.15,2013-02-13 15:22:00,
2013-02-13 07:32:00,41.3,38.3,30.25,ENE,57,0.0,0.0,89,0.00,,,0.00,Wunderground v.1.15,2013-02-13 15:32:00,
2013-02-13 07:42:00,41.9,38.3,30.25,ENE,57,0.0,0.0,87,0.00,,,0.00,Wunderground v.1.15,2013-02-13 15:42:00,
2013-02-13 07:52:00,42.6,39.0,30.25,ENE,57,0.0,0.0,87,0.00,,,0.00,Wunderground v.1.15,2013-02-13 15:52:00,
2013-02-13 08:02:00,44.4,39.9,30.24,ENE,57,0.0,0.0,84,0.00,,,0.00,Wunderground v.1.15,2013-02-13 16:02:00,
2013-02-13 08:12:00,45.9,40.4,30.25,ENE,57,0.0,0.0,81,0.00,,,0.00,Wunderground v.1.15,2013-02-13 16:12:00,
2013-02-13 08:22:00,47.6,40.4,30.25,ENE,57,0.0,0.0,76,0.00,,,0.00,Wunderground v.1.15,2013-02-13 16:22:00,
2013-02-13 08:32:00,48.6,40.0,30.25,ENE,57,0.0,0.0,72,0.00,,,0.00,Wunderground v.1.15,2013-02-13 16:32:00,
2013-02-13 08:42:00,49.8,40.8,30.25,ENE,57,0.0,0.0,71,0.00,,,0.00,Wunderground v.1.15,2013-02-13 16:42:00,
2013-02-13 08:52:00,51.0,41.2,30.25,ENE,57,0.0,0.0,69,0.00,,,0.00,Wunderground v.1.15,2013-02-13 16:52:00,
2013-02-13 09:02:00,52.6,41.6,30.25,ENE,57,0.0,0.0,66,0.00,,,0.00,Wunderground v.1.15,2013-02-13 17:02:00,
2013-02-13 09:12:00,54.6,41.8,30.25,ENE,57,0.0,1.0,62,0.00,,,0.00,Wunderground v.1.15,2013-02-13 17:12:00,
2013-02-13 09:22:00,55.9,41.8,30.24,ENE,57,1.0,1.0,59,0.00,,,0.00,Wunderground v.1.15,2013-02-13 17:22:00,
2013-02-13 09:32:00,56.9,41.4,30.24,ENE,57,1.0,1.0,56,0.00,,,0.00,Wunderground v.1.15,2013-02-13 17:32:00,
2013-02-13 09:42:00,57.9,41.3,30.24,ENE,57,1.0,1.0,54,0.00,,,0.00,Wunderground v.1.15,2013-02-13 17:42:00,
2013-02-13 09:52:00,58.2,40.6,30.24,ENE,57,1.0,1.0,52,0.00,,,0.00,Wunderground v.1.15,2013-02-13 17:52:00,
2013-02-13 10:02:00,58.0,40.5,30.24,ENE,64,1.0,1.0,52,0.00,,,0.00,Wunderground v.1.15,2013-02-13 18:02:00,
2013-02-13 10:12:00,58.3,39.7,30.24,SW,235,1.0,1.0,50,0.00,,,0.00,Wunderground v.1.15,2013-02-13 18:12:00,
2013-02-13 10:22:00,58.9,40.3,30.24,WSW,258,1.0,1.0,50,0.00,,,0.00,Wunderground v.1.15,2013-02-13 18:22:00,
2013-02-13 10:32:00,59.9,40.7,30.24,WSW,257,1.0,2.0,49,0.00,,,0.00,Wunderground v.1.15,2013-02-13 18:32:00,
2013-02-13 10:42:00,60.4,40.6,30.24,SSW,207,2.0,2.0,48,0.00,,,0.00,Wunderground v.1.15,2013-02-13 18:42:00,
2013-02-13 10:52:00,61.0,40.6,30.23,WSW,238,1.0,1.0,47,0.00,,,0.00,Wunderground v.1.15,2013-02-13 18:52:00,
2013-02-13 11:02:00,61.2,39.7,30.23,SSE,148,3.0,3.0,45,0.00,,,0.00,Wunderground v.1.15,2013-02-13 19:02:00,
2013-02-13 11:12:00,62.2,40.0,30.22,WSW,254,2.0,2.0,44,0.00,,,0.00,Wunderground v.1.15,2013-02-13 19:12:00,
2013-02-13 11:22:00,62.9,38.2,30.22,WNW,287,2.0,2.0,40,0.00,,,0.00,Wunderground v.1.15,2013-02-13 19:22:00,
2013-02-13 11:33:00,63.4,39.3,30.21,WSW,246,2.0,2.0,41,0.00,,,0.00,Wunderground v.1.15,2013-02-13 19:33:00,
2013-02-13 11:42:00,63.8,39.6,30.21,South,180,2.0,2.0,41,0.00,,,0.00,Wunderground v.1.15,2013-02-13 19:42:00,
2013-02-13 11:52:00,64.6,38.4,30.20,SSE,155,2.0,2.0,38,0.00,,,0.00,Wunderground v.1.15,2013-02-13 19:52:00,
2013-02-13 12:02:00,65.6,39.3,30.20,South,178,2.0,3.0,38,0.00,,,0.00,Wunderground v.1.15,2013-02-13 20:02:00,
2013-02-13 12:12:00,65.0,37.4,30.19,West,273,4.0,4.0,36,0.00,,,0.00,Wunderground v.1.15,2013-02-13 20:12:00,
2013-02-13 12:22:00,65.4,36.3,30.18,SW,216,2.0,2.0,34,0.00,,,0.00,Wunderground v.1.15,2013-02-13 20:22:00,
2013-02-13 12:32:00,66.2,37.7,30.18,SE,133,2.0,6.0,35,0.00,,,0.00,Wunderground v.1.15,2013-02-13 20:32:00,
2013-02-13 12:42:00,66.5,37.2,30.17,SE,139,2.0,2.0,34,0.00,,,0.00,Wunderground v.1.15,2013-02-13 20:42:00,
2013-02-13 12:52:00,66.7,36.7,30.17,SE,134,3.0,3.0,33,0.00,,,0.00,Wunderground v.1.15,2013-02-13 20:52:00,
2013-02-13 13:02:00,67.4,36.5,30.16,SW,228,3.0,6.0,32,0.00,,,0.00,Wunderground v.1.15,2013-02-13 21:02:00,
2013-02-13 13:12:00,66.8,37.5,30.16,SSW,209,2.0,3.0,34,0.00,,,0.00,Wunderground v.1.15,2013-02-13 21:12:00,
2013-02-13 13:22:00,67.4,38.0,30.16,West,261,3.0,3.0,34,0.00,,,0.00,Wunderground v.1.15,2013-02-13 21:22:00,
2013-02-13 13:32:00,68.1,37.1,30.15,SW,228,2.0,5.0,32,0.00,,,0.00,Wunderground v.1.15,2013-02-13 21:32:00,
2013-02-13 13:42:00,68.5,36.7,30.15,South,169,3.0,3.0,31,0.00,,,0.00,Wunderground v.1.15,2013-02-13 21:42:00,
2013-02-13 13:52:00,68.5,35.8,30.14,SSW,213,3.0,3.0,30,0.00,,,0.00,Wunderground v.1.15,2013-02-13 21:52:00,
2013-02-13 14:02:00,68.7,35.1,30.14,SW,225,4.0,4.0,29,0.00,,,0.00,Wunderground v.1.15,2013-02-13 22:02:00,
2013-02-13 14:12:00,69.2,34.7,30.14,SSE,160,3.0,3.0,28,0.00,,,0.00,Wunderground v.1.15,2013-02-13 22:12:00,
2013-02-13 14:22:00,69.5,34.9,30.13,SSE,168,2.0,3.0,28,0.00,,,0.00,Wunderground v.1.15,2013-02-13 22:22:00,
2013-02-13 14:32:00,70.1,36.3,30.13,South,178,2.0,8.0,29,0.00,,,0.00,Wunderground v.1.15,2013-02-13 22:32:00,
2013-02-13 14:42:00,70.0,38.0,30.13,SSE,153,4.0,4.0,31,0.00,,,0.00,Wunderground v.1.15,2013-02-13 22:42:00,
2013-02-13 14:52:00,69.8,43.0,30.12,SE,146,4.0,10.0,38,0.00,,,0.00,Wunderground v.1.15,2013-02-13 22:52:00,
2013-02-13 15:02:00,69.4,42.7,30.12,SSW,204,4.0,5.0,38,0.00,,,0.00,Wunderground v.1.15,2013-02-13 23:02:00,
2013-02-13 15:12:00,68.8,42.8,30.12,SSW,209,5.0,5.0,39,0.00,,,0.00,Wunderground v.1.15,2013-02-13 23:12:00,
2013-02-13 15:22:00,68.6,43.3,30.11,SSW,206,4.0,5.0,40,0.00,,,0.00,Wunderground v.1.15,2013-02-13 23:22:00,
2013-02-13 15:32:00,68.6,43.3,30.11,SSW,200,5.0,6.0,40,0.00,,,0.00,Wunderground v.1.15,2013-02-13 23:32:00,
2013-02-13 15:42:00,68.4,43.8,30.11,South,178,5.0,5.0,41,0.00,,,0.00,Wunderground v.1.15,2013-02-13 23:42:00,
2013-02-13 15:52:00,68.2,42.9,30.11,South,180,5.0,5.0,40,0.00,,,0.00,Wunderground v.1.15,2013-02-13 23:52:00,
2013-02-13 16:02:00,67.9,44.6,30.11,South,174,4.0,4.0,43,0.00,,,0.00,Wunderground v.1.15,2013-02-14 00:02:00,
2013-02-13 16:12:00,67.2,43.9,30.11,SE,144,4.0,4.0,43,0.00,,,0.00,Wunderground v.1.15,2013-02-14 00:12:00,
2013-02-13 16:22:00,67.2,43.3,30.11,SW,219,4.0,4.0,42,0.00,,,0.00,Wunderground v.1.15,2013-02-14 00:22:00,
2013-02-13 16:32:00,66.5,43.9,30.11,SSW,206,4.0,4.0,44,0.00,,,0.00,Wunderground v.1.15,2013-02-14 00:32:00,
2013-02-13 16:42:00,65.7,43.8,30.11,SW,229,4.0,4.0,45,0.00,,,0.00,Wunderground v.1.15,2013-02-14 00:42:00,
2013-02-13 16:52:00,64.8,42.9,30.11,SW,221,4.0,4.0,45,0.00,,,0.00,Wunderground v.1.15,2013-02-14 00:52:00,
2013-02-13 17:02:00,63.9,43.3,30.12,SW,229,3.0,3.0,47,0.00,,,0.00,Wunderground v.1.15,2013-02-14 01:02:00,
2013-02-13 17:12:00,62.9,41.2,30.12,West,259,4.0,4.0,45,0.00,,,0.00,Wunderground v.1.15,2013-02-14 01:12:00,
2013-02-13 17:22:00,61.6,39.5,30.12,West,277,3.0,3.0,44,0.00,,,0.00,Wunderground v.1.15,2013-02-14 01:22:00,
2013-02-13 17:32:00,61.0,37.1,30.12,West,259,2.0,3.0,41,0.00,,,0.00,Wunderground v.1.15,2013-02-14 01:32:00,
2013-02-13 17:42:00,60.5,37.3,30.12,SW,235,3.0,3.0,42,0.00,,,0.00,Wunderground v.1.15,2013-02-14 01:42:00,
2013-02-13 17:52:00,60.2,38.8,30.13,West,265,2.0,2.0,45,0.00,,,0.00,Wunderground v.1.15,2013-02-14 01:52:00,
2013-02-13 18:02:00,59.7,39.4,30.13,West,259,1.0,2.0,47,0.00,,,0.00,Wunderground v.1.15,2013-02-14 02:02:00,
2013-02-13 18:12:00,59.4,39.7,30.13,WSW,248,1.0,2.0,48,0.00,,,0.00,Wunderground v.1.15,2013-02-14 02:12:00,
2013-02-13 18:22:00,59.0,40.4,30.13,WSW,239,1.0,1.0,50,0.00,,,0.00,Wunderground v.1.15,2013-02-14 02:22:00,
2013-02-13 18:32:00,58.5,40.9,30.13,SW,234,1.0,1.0,52,0.00,,,0.00,Wunderground v.1.15,2013-02-14 02:32:00,
2013-02-13 18:42:00,57.9,41.3,30.13,SW,234,1.0,1.0,54,0.00,,,0.00,Wunderground v.1.15,2013-02-14 02:42:00,
2013-02-13 18:52:00,57.4,42.3,30.13,SW,234,1.0,1.0,57,0.00,,,0.00,Wunderground v.1.15,2013-02-14 02:52:00,
2013-02-13 19:02:00,56.8,42.2,30.13,SW,234,0.0,0.0,58,0.00,,,0.00,Wunderground v.1.15,2013-02-14 03:02:00,
2013-02-13 19:12:00,56.2,42.9,30.13,SW,234,0.0,0.0,61,0.00,,,0.00,Wunderground v.1.15,2013-02-14 03:12:00,
2013-02-13 19:22:00,55.8,43.0,30.14,SW,234,0.0,0.0,62,0.00,,,0.00,Wunderground v.1.15,2013-02-14 03:22:00,
2013-02-13 19:32:00,55.1,42.7,30.14,SW,234,0.0,0.0,63,0.00,,,0.00,Wunderground v.1.15,2013-02-14 03:32:00,
2013-02-13 19:42:00,54.5,43.0,30.14,SW,234,0.0,0.0,65,0.00,,,0.00,Wunderground v.1.15,2013-02-14 03:42:00,
2013-02-13 19:52:00,53.9,42.8,30.14,SW,234,0.0,0.0,66,0.00,,,0.00,Wunderground v.1.15,2013-02-14 03:52:00,
2013-02-13 20:02:00,53.2,41.3,30.14,NW,309,1.0,1.0,64,0.00,,,0.00,Wunderground v.1.15,2013-02-14 04:02:00,
2013-02-13 20:12:00,52.5,40.7,30.14,NW,309,1.0,1.0,64,0.00,,,0.00,Wunderground v.1.15,2013-02-14 04:12:00,
2013-02-13 20:22:00,52.0,40.6,30.14,NW,309,0.0,0.0,65,0.00,,,0.00,Wunderground v.1.15,2013-02-14 04:22:00,
2013-02-13 20:32:00,51.5,40.1,30.14,NW,309,0.0,0.0,65,0.00,,,0.00,Wunderground v.1.15,2013-02-14 04:32:00,
2013-02-13 20:42:00,51.0,40.4,30.15,NW,309,0.0,0.0,67,0.00,,,0.00,Wunderground v.1.15,2013-02-14 04:42:00,
2013-02-13 21:02:00,50.4,40.2,30.15,NW,309,0.0,0.0,68,0.00,,,0.00,Wunderground v.1.15,2013-02-14 05:02:00,
2013-02-13 21:12:00,50.1,40.3,30.15,NW,309,0.0,0.0,69,0.00,,,0.00,Wunderground v.1.15,2013-02-14 05:12:00,
2013-02-13 21:22:00,49.7,40.3,30.15,NW,309,0.0,0.0,70,0.00,,,0.00,Wunderground v.1.15,2013-02-14 05:22:00,
2013-02-13 21:32:00,49.4,40.4,30.15,NW,309,0.0,0.0,71,0.00,,,0.00,Wunderground v.1.15,2013-02-14 05:32:00,
2013-02-13 21:42:00,48.8,39.8,30.15,NW,309,0.0,0.0,71,0.00,,,0.00,Wunderground v.1.15,2013-02-14 05:42:00,
2013-02-13 21:52:00,48.5,39.9,30.15,NW,309,0.0,0.0,72,0.00,,,0.00,Wunderground v.1.15,2013-02-14 05:52:00,
2013-02-13 22:02:00,48.2,39.9,30.15,NW,309,0.0,0.0,73,0.00,,,0.00,Wunderground v.1.15,2013-02-14 06:02:00,
2013-02-13 22:13:00,47.8,39.9,30.15,NW,309,0.0,0.0,74,0.00,,,0.00,Wunderground v.1.15,2013-02-14 06:13:00,
2013-02-13 22:22:00,47.5,40.3,30.16,NW,309,0.0,0.0,76,0.00,,,0.00,Wunderground v.1.15,2013-02-14 06:22:00,
2013-02-13 22:32:00,47.3,40.1,30.15,NW,309,0.0,0.0,76,0.00,,,0.00,Wunderground v.1.15,2013-02-14 06:32:00,
2013-02-13 22:42:00,46.9,39.7,30.16,NW,309,0.0,0.0,76,0.00,,,0.00,Wunderground v.1.15,2013-02-14 06:42:00,
2013-02-13 22:52:00,46.5,39.7,30.16,NW,309,0.0,0.0,77,0.00,,,0.00,Wunderground v.1.15,2013-02-14 06:52:00,
2013-02-13 23:02:00,46.3,39.8,30.16,NW,309,0.0,0.0,78,0.00,,,0.00,Wunderground v.1.15,2013-02-14 07:02:00,
2013-02-13 23:13:00,46.2,39.7,30.16,NW,309,0.0,0.0,78,0.00,,,0.00,Wunderground v.1.15,2013-02-14 07:13:00,
2013-02-13 23:22:00,46.1,39.6,30.16,NW,309,0.0,0.0,78,0.00,,,0.00,Wunderground v.1.15,2013-02-14 07:22:00,
2013-02-13 23:32:00,45.8,39.7,30.16,NW,309,0.0,1.0,79,0.00,,,0.00,Wunderground v.1.15,2013-02-14 07:32:00,
2013-02-13 23:42:00,45.6,39.5,30.16,NW,309,0.0,0.0,79,0.00,,,0.00,Wunderground v.1.15,2013-02-14 07:42:00,
2013-02-13 23:52:00,45.3,39.5,30.16,NW,309,0.0,0.0,80,0.00,,,0.00,Wunderground v.1.15,2013-02-14 07:52:00,